Terminal Aerodrome Forecast
Issued by NWS Mt. Holly, NJ

Home | Current Version | Previous Version | Text Only | Print | Product List | Glossary On
Versions: 1 2 3 4 5 6 7 8 9 10 11 12 13 14 15 16 17 18 19 20 21 22 23 24 25 26 27 28
000
FTUS41 KPHI 042240 AAB
TAFABE
TAF AMD
KABE 042240Z 0423/0518 22007KT 3SM BR OVC035
     FM050000 31003KT 3SM -RA BR OVC009
     FM050300 31006KT 2SM -RAPL BR OVC005
     FM050500 34010KT 1SM -SNPL BR OVC005
      TEMPO 0508/0512 1/2SM SN VV003
     FM051500 34008KT 3SM BR OVC020=

USA.gov is the U.S. government's official web portal to all federal, state and local government web resources and services.